Quick Links (Output Below):   Max & Min Temps   /   Climate Reports   /   Zone Forecasts
River Forecasts   /   Forestry Forecasts   /   Aviation Forecasts   /   Radars   /   Features

Terminal Aerodrome Forecast (Pine Bluff)

Pick a Site:
Arkadelphia | El Dorado | Fayetteville | Fort Smith | Harrison | Highfill | Hot Springs | Jonesboro
Little Rock | Monticello | Mountain Home | Pine Bluff | Texarkana
 Forecast 

KPBF 010520Z 0106/0206 10003KT P6SM SCT250
     FM011400 18009KT P6SM SCT050 BKN120
     FM020000 15003KT P6SM SCT050 BKN250=


 Latest METARs (Observations) 
How to Decode METARs
05Z KPBF 010453Z AUTO 00000KT 9SM CLR 18/16 A2987 RMK AO2 SLP110
         T01830161
         
04Z KPBF 010353Z AUTO 00000KT 10SM CLR 19/17 A2986 RMK AO2 SLP110
         T01940167
         
03Z KPBF 010253Z AUTO 00000KT 10SM CLR 20/17 A2986 RMK AO2 SLP109
         T02000167 53005
         
02Z KPBF 010153Z AUTO 00000KT 10SM CLR 21/17 A2985 RMK AO2 SLP107
         T02060167
         
01Z KPBF 010053Z AUTO 36003KT 10SM CLR 24/16 A2985 RMK AO2 SLP105
         T02390161
         
***** Today's Observations (Above) *****


23Z KPBF 302253Z AUTO 25003KT 10SM CLR 29/15 A2984 RMK AO2 SLP104
         T02890150
         
22Z KPBF 302153Z AUTO 21005KT 10SM CLR 30/15 A2985 RMK AO2 SLP104
         T03000150
         
21Z KPBF 302053Z AUTO 26007KT 230V300 10SM CLR 30/14 A2986 RMK AO2
         SLP107 T03000144 56020
         
20Z KPBF 301953Z AUTO 18005KT 10SM FEW060 30/14 A2987 RMK AO2 SLP110
         T03000139
         
19Z KPBF 301853Z AUTO 33003KT 10SM BKN060 29/14 A2989 RMK AO2 SLP118
         T02940144
         
***** Yesterday's Observations (Above) *****


Back to Main Page
http://www.srh.noaa.gov/lzk/qfcst.php

USA.gov is the U.S. government's official web portal to all federal, state and local government web resources and services.